Time;durP1;ratioP1;P1;durP2;ratioP2;P2;SDS_P1;SDS_P2;PMS_P1;PMS_P2;Temp;Humidity;BMP_temperature;BMP_pressure;BME280_temperature;BME280_humidity;BME280_pressure;Samples;Min_cycle;Max_cycle;Signal;HPM_P1;HPM_P2
2021/12/07 00:00:50;;;;;;;53.70;28.30;;;;;;;;;;4976694;28;20417;-76
2021/12/07 00:03:16;;;;;;;51.90;28.43;;;;;;;;;;4978405;28;20421;-77
2021/12/07 00:05:43;;;;;;;50.87;28.53;;;;;;;;;;4975600;28;20429;-76
2021/12/07 00:08:09;;;;;;;47.57;27.43;;;;;;;;;;4976265;28;21142;-76
2021/12/07 00:10:37;;;;;;;46.07;27.70;;;;;;;;;;4975625;28;20409;-76
2021/12/07 00:13:03;;;;;;;48.90;29.03;;;;;;;;;;4977653;28;20419;-77
2021/12/07 00:15:30;;;;;;;44.67;27.43;;;;;;;;;;4979318;28;20468;-76
2021/12/07 00:17:57;;;;;;;48.20;27.60;;;;;;;;;;4979257;28;20420;-76
2021/12/07 00:20:24;;;;;;;48.17;27.53;;;;;;;;;;4975124;28;20424;-76
2021/12/07 00:22:51;;;;;;;41.17;25.83;;;;;;;;;;4973349;28;21068;-76
2021/12/07 00:25:17;;;;;;;45.73;26.87;;;;;;;;;;4990260;28;20429;-77
2021/12/07 00:27:44;;;;;;;38.43;23.27;;;;;;;;;;4976100;28;20424;-76
2021/12/07 00:30:11;;;;;;;40.23;25.53;;;;;;;;;;4972245;28;20532;-76
2021/12/07 00:32:43;;;;;;;35.33;22.70;;;;;;;;;;4976360;28;21236;-76
2021/12/07 00:35:34;;;;;;;26.30;15.33;;;;;;;;;;4975615;28;20453;-76
2021/12/07 00:38:01;;;;;;;28.70;17.57;;;;;;;;;;4972250;28;21579;-76
2021/12/07 00:40:27;;;;;;;19.77;13.00;;;;;;;;;;4977044;28;20527;-76
2021/12/07 00:42:53;;;;;;;27.87;15.63;;;;;;;;;;4973635;28;21292;-76
2021/12/07 00:45:21;;;;;;;19.77;12.97;;;;;;;;;;4989632;28;20486;-76
2021/12/07 00:47:51;;;;;;;16.50;11.13;;;;;;;;;;4975125;28;20435;-76
2021/12/07 00:50:19;;;;;;;11.47;7.53;;;;;;;;;;4977320;28;20415;-76
2021/12/07 00:52:45;;;;;;;16.83;10.20;;;;;;;;;;4974992;28;20472;-77
2021/12/07 00:55:15;;;;;;;9.97;6.50;;;;;;;;;;4972357;28;20447;-76
2021/12/07 00:57:41;;;;;;;14.90;9.20;;;;;;;;;;4973936;28;20412;-76
2021/12/07 01:00:09;;;;;;;11.60;7.50;;;;;;;;;;4973321;28;20412;-77
2021/12/07 01:02:36;;;;;;;17.30;8.47;;;;;;;;;;4977427;28;20423;-77
2021/12/07 01:05:10;;;;;;;12.83;8.50;;;;;;;;;;4975818;28;20512;-76
2021/12/07 01:26:38;;;;;;;9.63;5.80;;;;;;;;;;4977699;28;20412;-76
2021/12/07 01:29:05;;;;;;;6.23;4.73;;;;;;;;;;4974174;28;21782;-76
2021/12/07 01:31:42;;;;;;;7.10;4.73;;;;;;;;;;4990932;28;20420;-76
2021/12/07 01:37:08;;;;;;;8.93;5.47;;;;;;;;;;4975817;28;20424;-76
2021/12/07 01:39:58;;;;;;;11.03;6.20;;;;;;;;;;4989323;28;20428;-76
2021/12/07 01:50:22;;;;;;;10.80;6.33;;;;;;;;;;4972005;28;20897;-76
2021/12/07 01:53:03;;;;;;;11.80;6.90;;;;;;;;;;4975202;28;21391;-76
2021/12/07 02:00:54;;;;;;;9.03;6.13;;;;;;;;;;4973226;28;21179;-76
2021/12/07 02:03:20;;;;;;;9.60;5.90;;;;;;;;;;4973247;28;20429;-76
2021/12/07 02:05:47;;;;;;;9.80;6.67;;;;;;;;;;4984517;28;21354;-76
2021/12/07 02:08:13;;;;;;;14.83;6.67;;;;;;;;;;4969202;28;20432;-76
2021/12/07 02:10:39;;;;;;;11.33;7.80;;;;;;;;;;4986501;28;20462;-77
2021/12/07 02:13:19;;;;;;;13.40;7.83;;;;;;;;;;4969749;28;20420;-76
2021/12/07 02:15:45;;;;;;;14.67;8.83;;;;;;;;;;4965412;28;20416;-76
2021/12/07 02:18:12;;;;;;;15.43;8.77;;;;;;;;;;4969590;28;20419;-76
2021/12/07 02:20:38;;;;;;;14.57;9.20;;;;;;;;;;4983735;28;21383;-76
2021/12/07 02:23:04;;;;;;;17.43;9.70;;;;;;;;;;4973520;28;20439;-77
2021/12/07 02:25:32;;;;;;;17.07;11.53;;;;;;;;;;4986991;28;21877;-76
2021/12/07 02:27:59;;;;;;;19.90;11.70;;;;;;;;;;4972991;28;20436;-76
2021/12/07 02:30:26;;;;;;;20.10;12.67;;;;;;;;;;4971186;28;20417;-76
2021/12/07 02:32:54;;;;;;;19.13;12.30;;;;;;;;;;4974958;28;20809;-76
2021/12/07 02:35:25;;;;;;;23.20;14.53;;;;;;;;;;4974060;28;20452;-76
2021/12/07 02:37:51;;;;;;;18.20;13.67;;;;;;;;;;4985596;28;20567;-76
2021/12/07 02:40:18;;;;;;;23.37;13.23;;;;;;;;;;4984851;28;20428;-76
2021/12/07 02:42:45;;;;;;;23.93;14.40;;;;;;;;;;4986763;28;21036;-76
2021/12/07 02:45:11;;;;;;;28.10;16.50;;;;;;;;;;4989010;28;20428;-76
2021/12/07 02:47:37;;;;;;;26.53;16.87;;;;;;;;;;4991540;28;21259;-76
2021/12/07 02:50:05;;;;;;;28.17;18.13;;;;;;;;;;4990260;28;20463;-76
2021/12/07 02:52:31;;;;;;;30.17;18.03;;;;;;;;;;4991807;28;20424;-76
2021/12/07 02:54:58;;;;;;;24.00;16.03;;;;;;;;;;4975504;28;20472;-76
2021/12/07 02:57:24;;;;;;;24.57;16.30;;;;;;;;;;4975098;28;20426;-76
2021/12/07 02:59:59;;;;;;;31.67;18.53;;;;;;;;;;4974872;28;20421;-76
2021/12/07 03:02:25;;;;;;;32.17;18.73;;;;;;;;;;4987627;28;20404;-76
2021/12/07 03:05:04;;;;;;;26.63;17.57;;;;;;;;;;5003359;28;20799;-76
2021/12/07 03:26:37;;;;;;;29.40;17.67;;;;;;;;;;4974623;28;21538;-76
2021/12/07 03:29:03;;;;;;;31.57;18.17;;;;;;;;;;4973621;28;20845;-77
2021/12/07 03:31:30;;;;;;;32.23;18.23;;;;;;;;;;4963687;28;21024;-76
2021/12/07 03:33:57;;;;;;;25.53;16.63;;;;;;;;;;4963783;28;21361;-76
2021/12/07 03:36:23;;;;;;;27.93;17.20;;;;;;;;;;4964856;28;20490;-77
2021/12/07 03:38:49;;;;;;;28.60;16.77;;;;;;;;;;4963809;28;20432;-76
2021/12/07 03:41:16;;;;;;;27.00;16.60;;;;;;;;;;4963174;28;20485;-76
2021/12/07 03:43:42;;;;;;;27.60;16.70;;;;;;;;;;4964942;28;20547;-76
2021/12/07 03:46:08;;;;;;;30.80;16.83;;;;;;;;;;4966983;28;20428;-76
2021/12/07 03:48:35;;;;;;;24.17;15.07;;;;;;;;;;4961778;28;20459;-76
2021/12/07 03:51:01;;;;;;;26.53;16.03;;;;;;;;;;4961741;28;20507;-76
2021/12/07 03:53:30;;;;;;;29.33;15.80;;;;;;;;;;4963313;28;20484;-76
2021/12/07 03:55:57;;;;;;;30.10;16.87;;;;;;;;;;4964376;28;20451;-76
2021/12/07 03:58:23;;;;;;;28.40;16.43;;;;;;;;;;4963257;28;20405;-76
2021/12/07 04:00:49;;;;;;;24.03;14.70;;;;;;;;;;4963860;28;20412;-76
2021/12/07 04:03:16;;;;;;;26.17;15.17;;;;;;;;;;4978590;28;20416;-76
2021/12/07 04:05:53;;;;;;;21.40;13.10;;;;;;;;;;4959820;28;20439;-76
2021/12/07 04:08:22;;;;;;;21.23;13.67;;;;;;;;;;4962747;28;20417;-76
2021/12/07 04:10:48;;;;;;;20.97;13.27;;;;;;;;;;4976567;28;20425;-76
2021/12/07 04:13:14;;;;;;;22.93;13.43;;;;;;;;;;4960308;28;21267;-76
2021/12/07 04:15:40;;;;;;;22.17;12.93;;;;;;;;;;4962616;28;20444;-76
2021/12/07 04:18:07;;;;;;;22.40;13.20;;;;;;;;;;4977030;28;20681;-76
2021/12/07 04:20:33;;;;;;;21.30;12.73;;;;;;;;;;4993466;28;20523;-76
2021/12/07 04:22:59;;;;;;;19.63;12.17;;;;;;;;;;4978045;28;21505;-77
2021/12/07 04:25:26;;;;;;;19.57;12.90;;;;;;;;;;4965534;28;20428;-76
2021/12/07 04:27:53;;;;;;;19.53;11.90;;;;;;;;;;4976447;28;20417;-76
2021/12/07 04:30:21;;;;;;;18.17;11.90;;;;;;;;;;4962060;28;20448;-76
2021/12/07 04:32:48;;;;;;;19.63;12.37;;;;;;;;;;4975362;28;20447;-76
2021/12/07 04:35:14;;;;;;;24.07;12.97;;;;;;;;;;4974897;28;20444;-76
2021/12/07 04:37:40;;;;;;;18.47;12.27;;;;;;;;;;4963019;28;20420;-76
2021/12/07 04:40:08;;;;;;;21.47;12.07;;;;;;;;;;4960779;28;20535;-76
2021/12/07 04:42:34;;;;;;;20.80;12.70;;;;;;;;;;4960722;28;20416;-77
2021/12/07 04:45:04;;;;;;;18.00;10.47;;;;;;;;;;4977902;28;20410;-76
2021/12/07 04:47:45;;;;;;;16.87;9.23;;;;;;;;;;4966344;28;21552;-78
2021/12/07 04:58:16;;;;;;;14.87;9.93;;;;;;;;;;4961451;28;20421;-76
2021/12/07 05:00:42;;;;;;;18.07;10.20;;;;;;;;;;4975635;28;21188;-77
2021/12/07 05:03:12;;;;;;;17.57;10.30;;;;;;;;;;4973406;28;21320;-76
2021/12/07 05:05:44;;;;;;;18.13;11.00;;;;;;;;;;4961922;28;20440;-76
2021/12/07 05:08:13;;;;;;;16.00;9.90;;;;;;;;;;4974350;28;21197;-77
2021/12/07 05:16:02;;;;;;;17.00;10.33;;;;;;;;;;4961298;28;20504;-76
2021/12/07 05:24:06;;;;;;;16.13;10.37;;;;;;;;;;4962539;28;20456;-76
2021/12/07 05:37:58;;;;;;;13.83;8.30;;;;;;;;;;4961120;28;20471;-76
2021/12/07 05:40:24;;;;;;;14.57;8.27;;;;;;;;;;4974121;28;20420;-76
2021/12/07 05:42:50;;;;;;;14.27;8.67;;;;;;;;;;4966038;28;20520;-76
2021/12/07 05:45:18;;;;;;;13.87;8.43;;;;;;;;;;4961482;28;20515;-76
2021/12/07 05:47:44;;;;;;;12.47;8.43;;;;;;;;;;4960338;28;20435;-76
2021/12/07 05:50:12;;;;;;;14.80;7.87;;;;;;;;;;4961791;28;21011;-77
2021/12/07 05:52:38;;;;;;;14.27;8.07;;;;;;;;;;4989983;28;20423;-76
2021/12/07 05:55:05;;;;;;;12.77;7.10;;;;;;;;;;4959506;28;20542;-76
2021/12/07 05:57:31;;;;;;;12.50;7.97;;;;;;;;;;4959953;28;20996;-76
2021/12/07 05:59:57;;;;;;;14.73;7.87;;;;;;;;;;4971813;28;20424;-76
2021/12/07 06:02:23;;;;;;;14.50;7.87;;;;;;;;;;4986864;28;20436;-76
2021/12/07 06:04:49;;;;;;;11.77;7.63;;;;;;;;;;4975004;28;20470;-77
2021/12/07 06:07:15;;;;;;;10.70;7.17;;;;;;;;;;4971384;28;20426;-76
2021/12/07 06:09:41;;;;;;;10.53;7.07;;;;;;;;;;4973066;28;20424;-76
2021/12/07 06:12:08;;;;;;;13.20;7.73;;;;;;;;;;4974613;28;20431;-76
2021/12/07 06:14:41;;;;;;;17.03;7.50;;;;;;;;;;4972799;28;21657;-77
2021/12/07 06:17:07;;;;;;;13.23;8.07;;;;;;;;;;4970189;28;20928;-77
2021/12/07 06:19:34;;;;;;;13.13;8.53;;;;;;;;;;4983979;28;20956;-77
2021/12/07 06:22:00;;;;;;;13.67;8.33;;;;;;;;;;4999908;28;20433;-76
2021/12/07 06:24:26;;;;;;;16.23;9.37;;;;;;;;;;4994813;28;20562;-76
2021/12/07 06:26:52;;;;;;;16.93;10.20;;;;;;;;;;4981788;28;20549;-76
2021/12/07 06:29:18;;;;;;;19.70;10.93;;;;;;;;;;4977537;28;20412;-76
2021/12/07 06:31:44;;;;;;;17.70;10.70;;;;;;;;;;4981509;28;20992;-76
2021/12/07 06:34:11;;;;;;;22.47;12.87;;;;;;;;;;4995017;28;20511;-77
2021/12/07 06:36:40;;;;;;;19.67;11.83;;;;;;;;;;4979674;28;20420;-77
2021/12/07 06:39:07;;;;;;;25.43;13.50;;;;;;;;;;4977213;28;20431;-77
2021/12/07 06:41:33;;;;;;;21.37;12.23;;;;;;;;;;5007707;28;20420;-76
2021/12/07 06:43:59;;;;;;;25.93;13.17;;;;;;;;;;4981786;28;21295;-76
2021/12/07 06:46:25;;;;;;;25.80;13.07;;;;;;;;;;4976499;28;20456;-76
2021/12/07 06:48:51;;;;;;;25.53;13.50;;;;;;;;;;4992431;28;20436;-76
2021/12/07 06:51:18;;;;;;;25.57;13.47;;;;;;;;;;4979527;28;21501;-76
2021/12/07 06:53:44;;;;;;;21.83;12.97;;;;;;;;;;4981377;28;21608;-76
2021/12/07 06:56:10;;;;;;;21.77;13.20;;;;;;;;;;4995054;28;20412;-76
2021/12/07 06:58:37;;;;;;;31.83;13.67;;;;;;;;;;4980914;28;20419;-78
2021/12/07 07:01:06;;;;;;;25.37;13.10;;;;;;;;;;4982682;28;21333;-79
2021/12/07 07:03:32;;;;;;;22.17;13.57;;;;;;;;;;4976982;28;20408;-78
2021/12/07 07:05:58;;;;;;;26.53;14.43;;;;;;;;;;5009909;28;20802;-79
2021/12/07 07:08:25;;;;;;;22.37;13.20;;;;;;;;;;4983474;28;20503;-79
2021/12/07 07:10:51;;;;;;;28.03;13.57;;;;;;;;;;4981012;28;20432;-79
2021/12/07 07:13:17;;;;;;;24.00;14.07;;;;;;;;;;4981021;28;20415;-79
2021/12/07 07:15:43;;;;;;;23.20;13.60;;;;;;;;;;4981700;28;20452;-78
2021/12/07 07:18:09;;;;;;;20.13;12.13;;;;;;;;;;4995976;28;20405;-78
2021/12/07 07:20:35;;;;;;;21.30;13.17;;;;;;;;;;4978227;28;20475;-78
2021/12/07 07:23:01;;;;;;;26.07;13.77;;;;;;;;;;4981687;28;20418;-78
2021/12/07 07:25:27;;;;;;;26.67;13.13;;;;;;;;;;4997690;28;20503;-79
2021/12/07 07:27:53;;;;;;;27.30;13.23;;;;;;;;;;4984545;28;21157;-79
2021/12/07 07:30:20;;;;;;;21.60;12.43;;;;;;;;;;4982313;28;20455;-78
2021/12/07 07:32:47;;;;;;;26.67;12.90;;;;;;;;;;4980091;28;20448;-79
2021/12/07 07:35:14;;;;;;;26.97;12.13;;;;;;;;;;4996862;28;20456;-80
2021/12/07 07:37:40;;;;;;;31.90;12.20;;;;;;;;;;4979760;28;20430;-79
2021/12/07 07:40:08;;;;;;;21.13;11.40;;;;;;;;;;4984244;28;21172;-78
2021/12/07 07:42:35;;;;;;;23.33;12.47;;;;;;;;;;4979858;28;21076;-78
2021/12/07 07:45:01;;;;;;;22.40;11.03;;;;;;;;;;4979838;28;20474;-77
2021/12/07 07:47:27;;;;;;;21.07;10.73;;;;;;;;;;5007652;28;20444;-78
2021/12/07 07:49:53;;;;;;;19.87;10.57;;;;;;;;;;4981202;28;20476;-78
2021/12/07 07:52:19;;;;;;;18.83;9.77;;;;;;;;;;5000129;28;20406;-78
2021/12/07 07:54:45;;;;;;;19.43;9.63;;;;;;;;;;4981671;28;20434;-79
2021/12/07 07:57:11;;;;;;;17.67;9.30;;;;;;;;;;4981419;28;20524;-79
2021/12/07 07:59:39;;;;;;;17.93;9.50;;;;;;;;;;4997099;28;20424;-79
2021/12/07 08:02:05;;;;;;;15.73;8.80;;;;;;;;;;4980118;28;20413;-79
2021/12/07 08:04:32;;;;;;;18.13;9.20;;;;;;;;;;4998485;28;20859;-78
2021/12/07 08:06:58;;;;;;;18.40;8.97;;;;;;;;;;4978641;28;20520;-78
2021/12/07 08:09:24;;;;;;;15.90;8.53;;;;;;;;;;4977472;28;20464;-79
2021/12/07 08:11:50;;;;;;;16.00;8.00;;;;;;;;;;4978726;28;20432;-79
2021/12/07 08:14:17;;;;;;;14.83;8.17;;;;;;;;;;4979382;28;20471;-78
2021/12/07 08:16:44;;;;;;;15.03;8.50;;;;;;;;;;4993243;28;21270;-78
2021/12/07 08:19:10;;;;;;;16.07;8.37;;;;;;;;;;4992010;28;20511;-78
2021/12/07 08:21:36;;;;;;;14.30;7.60;;;;;;;;;;4992964;28;20502;-78
2021/12/07 08:24:02;;;;;;;17.00;8.53;;;;;;;;;;4976925;28;20515;-78
2021/12/07 08:26:29;;;;;;;16.47;7.57;;;;;;;;;;4977276;28;20417;-78
2021/12/07 08:28:56;;;;;;;15.97;8.17;;;;;;;;;;4993870;28;20425;-78
2021/12/07 08:31:22;;;;;;;13.90;8.17;;;;;;;;;;4981712;28;20424;-78
2021/12/07 08:33:48;;;;;;;15.87;8.47;;;;;;;;;;4978209;28;20427;-78
2021/12/07 08:36:14;;;;;;;18.13;9.60;;;;;;;;;;5011126;28;21314;-78
2021/12/07 08:38:40;;;;;;;17.30;8.07;;;;;;;;;;4975263;28;20412;-78
2021/12/07 08:41:07;;;;;;;16.83;9.03;;;;;;;;;;4981208;28;20420;-78
2021/12/07 08:43:34;;;;;;;17.20;9.13;;;;;;;;;;4977350;28;20440;-78
2021/12/07 08:46:01;;;;;;;15.50;9.23;;;;;;;;;;4979350;28;20424;-78
2021/12/07 08:48:28;;;;;;;22.07;9.57;;;;;;;;;;4977407;28;20444;-79
2021/12/07 08:50:54;;;;;;;18.90;9.57;;;;;;;;;;4992977;28;21276;-78
2021/12/07 08:53:21;;;;;;;17.67;9.70;;;;;;;;;;4981790;28;20413;-78
2021/12/07 09:01:19;;;;;;;19.20;9.83;;;;;;;;;;4980511;28;20455;-78
2021/12/07 09:03:46;;;;;;;21.70;10.10;;;;;;;;;;4979244;28;20424;-78
2021/12/07 09:06:13;;;;;;;21.43;10.10;;;;;;;;;;4981366;28;20416;-78
2021/12/07 09:08:42;;;;;;;23.30;10.53;;;;;;;;;;5011029;28;20412;-79
2021/12/07 09:11:10;;;;;;;16.57;10.07;;;;;;;;;;4997678;28;20416;-79
2021/12/07 09:13:37;;;;;;;21.80;11.23;;;;;;;;;;4980331;28;20589;-79
2021/12/07 09:16:03;;;;;;;19.93;10.93;;;;;;;;;;4982490;28;20459;-79
2021/12/07 09:18:30;;;;;;;19.87;11.40;;;;;;;;;;4997342;28;21073;-79
2021/12/07 09:20:56;;;;;;;20.63;10.80;;;;;;;;;;4980689;28;20420;-79
2021/12/07 09:23:25;;;;;;;27.70;12.10;;;;;;;;;;4979031;28;20544;-80
2021/12/07 09:25:51;;;;;;;30.40;11.33;;;;;;;;;;5011803;28;20424;-79
2021/12/07 09:28:18;;;;;;;22.03;11.50;;;;;;;;;;4983144;28;20485;-79
2021/12/07 09:30:50;;;;;;;23.30;12.00;;;;;;;;;;4981017;28;20706;-79
2021/12/07 09:33:17;;;;;;;21.23;11.50;;;;;;;;;;4981372;28;20416;-80
2021/12/07 09:35:43;;;;;;;22.87;11.13;;;;;;;;;;4993616;28;20467;-79
2021/12/07 09:38:11;;;;;;;23.57;11.57;;;;;;;;;;4993491;28;20420;-79
2021/12/07 09:40:38;;;;;;;20.23;11.60;;;;;;;;;;4978790;28;20410;-79
2021/12/07 09:43:04;;;;;;;20.33;11.43;;;;;;;;;;4993934;28;20420;-79
2021/12/07 09:45:32;;;;;;;22.63;10.80;;;;;;;;;;4997287;28;20424;-79
2021/12/07 09:47:59;;;;;;;19.63;10.83;;;;;;;;;;4997465;28;20452;-78
2021/12/07 09:50:26;;;;;;;22.23;12.10;;;;;;;;;;4985594;28;20413;-79
2021/12/07 09:52:52;;;;;;;19.13;11.67;;;;;;;;;;4998248;28;20416;-80
2021/12/07 09:55:19;;;;;;;21.67;11.93;;;;;;;;;;5000843;28;21258;-79
2021/12/07 09:57:46;;;;;;;18.50;10.90;;;;;;;;;;4988488;28;20417;-79
2021/12/07 10:00:14;;;;;;;19.43;11.73;;;;;;;;;;4988429;28;20404;-79
2021/12/07 10:02:40;;;;;;;19.77;12.00;;;;;;;;;;4987475;28;20412;-79
2021/12/07 10:05:06;;;;;;;17.77;11.27;;;;;;;;;;5003457;28;20415;-80
2021/12/07 10:07:33;;;;;;;18.77;11.03;;;;;;;;;;4983555;28;20450;-79
2021/12/07 10:09:59;;;;;;;17.00;11.37;;;;;;;;;;4985981;28;21331;-79
2021/12/07 10:12:27;;;;;;;20.63;11.23;;;;;;;;;;4987706;28;21320;-79
2021/12/07 10:14:53;;;;;;;17.53;10.67;;;;;;;;;;4987026;28;20456;-79
2021/12/07 10:17:23;;;;;;;16.23;10.37;;;;;;;;;;5001486;28;21090;-79
2021/12/07 10:19:49;;;;;;;16.53;9.43;;;;;;;;;;4985967;28;20462;-79
2021/12/07 10:22:19;;;;;;;15.17;9.87;;;;;;;;;;4987336;28;21187;-79
2021/12/07 10:24:51;;;;;;;16.37;9.87;;;;;;;;;;4986535;28;20418;-79
2021/12/07 10:27:34;;;;;;;17.73;9.63;;;;;;;;;;4990498;28;20473;-79
2021/12/07 10:30:01;;;;;;;13.90;10.00;;;;;;;;;;5004189;28;20532;-79
2021/12/07 10:32:27;;;;;;;14.93;9.57;;;;;;;;;;5018107;28;20815;-79
2021/12/07 10:34:53;;;;;;;16.97;9.73;;;;;;;;;;4986363;28;20460;-78
2021/12/07 10:37:20;;;;;;;14.80;9.37;;;;;;;;;;4985612;28;20420;-78
2021/12/07 10:39:49;;;;;;;15.83;9.63;;;;;;;;;;4988856;28;20647;-79
2021/12/07 10:42:18;;;;;;;14.27;9.57;;;;;;;;;;4989641;28;20432;-79
2021/12/07 10:44:44;;;;;;;17.33;10.47;;;;;;;;;;4987997;28;21246;-78
2021/12/07 10:47:12;;;;;;;15.57;9.50;;;;;;;;;;4985408;28;20440;-78
2021/12/07 10:49:42;;;;;;;18.77;9.43;;;;;;;;;;4986868;28;20435;-78
2021/12/07 10:52:13;;;;;;;13.77;9.13;;;;;;;;;;5003865;28;20452;-78
2021/12/07 10:54:50;;;;;;;11.60;8.30;;;;;;;;;;4986858;28;20554;-79
2021/12/07 10:57:40;;;;;;;13.87;9.00;;;;;;;;;;4986039;28;20466;-79
2021/12/07 11:00:20;;;;;;;12.87;8.93;;;;;;;;;;4980936;28;22114;-78
2021/12/07 11:02:48;;;;;;;12.50;8.80;;;;;;;;;;4986682;28;20491;-78
2021/12/07 11:05:19;;;;;;;14.87;7.90;;;;;;;;;;4984523;28;20428;-78
2021/12/07 11:07:46;;;;;;;17.27;8.63;;;;;;;;;;4982875;28;20435;-79
2021/12/07 11:10:19;;;;;;;13.10;8.10;;;;;;;;;;4986198;28;20571;-79
2021/12/07 11:12:51;;;;;;;13.47;8.43;;;;;;;;;;4983590;28;20500;-78
2021/12/07 11:15:23;;;;;;;13.97;8.73;;;;;;;;;;4985718;28;20565;-79
2021/12/07 11:17:50;;;;;;;15.07;8.93;;;;;;;;;;4981783;28;20416;-79
2021/12/07 11:20:16;;;;;;;14.13;8.37;;;;;;;;;;4983545;28;20405;-79
2021/12/07 11:22:44;;;;;;;11.70;7.87;;;;;;;;;;4980597;28;20417;-79
2021/12/07 11:25:13;;;;;;;14.23;8.37;;;;;;;;;;4999563;28;20805;-79
2021/12/07 11:30:31;;;;;;;14.57;8.40;;;;;;;;;;4979817;28;21194;-78
2021/12/07 11:32:59;;;;;;;12.70;7.83;;;;;;;;;;4996453;28;20429;-78
2021/12/07 11:35:26;;;;;;;13.73;8.27;;;;;;;;;;5011528;28;20465;-79
2021/12/07 11:37:53;;;;;;;16.00;8.60;;;;;;;;;;4984989;28;21363;-79
2021/12/07 11:40:23;;;;;;;17.93;10.60;;;;;;;;;;4981401;28;20417;-78
2021/12/07 11:42:49;;;;;;;14.97;9.93;;;;;;;;;;5013295;28;20469;-78
2021/12/07 11:45:17;;;;;;;17.43;11.23;;;;;;;;;;4983249;28;22064;-79
2021/12/07 11:47:49;;;;;;;17.93;12.33;;;;;;;;;;4998252;28;20436;-79
2021/12/07 11:50:23;;;;;;;19.33;12.03;;;;;;;;;;4998345;28;20432;-79
2021/12/07 11:52:51;;;;;;;21.40;13.60;;;;;;;;;;4982595;28;20420;-79
2021/12/07 11:55:17;;;;;;;20.10;13.90;;;;;;;;;;4995371;28;20437;-80
2021/12/07 11:57:44;;;;;;;20.93;13.90;;;;;;;;;;4997930;28;20421;-79
2021/12/07 12:00:12;;;;;;;18.60;14.17;;;;;;;;;;4986765;28;20408;-80
2021/12/07 12:02:39;;;;;;;24.83;15.47;;;;;;;;;;4977150;28;20452;-80
2021/12/07 12:05:05;;;;;;;24.30;15.47;;;;;;;;;;4998872;28;20440;-79
2021/12/07 12:07:32;;;;;;;24.43;15.40;;;;;;;;;;4983214;28;21268;-80
2021/12/07 12:09:58;;;;;;;20.93;14.83;;;;;;;;;;4998313;28;20426;-79
2021/12/07 12:12:36;;;;;;;24.83;15.90;;;;;;;;;;4986154;28;20439;-79
2021/12/07 12:15:25;;;;;;;23.70;15.07;;;;;;;;;;5000688;28;21277;-79
2021/12/07 12:18:10;;;;;;;23.93;15.63;;;;;;;;;;4969365;28;20432;-80
2021/12/07 12:20:57;;;;;;;24.57;16.13;;;;;;;;;;4994256;28;21094;-77
2021/12/07 12:23:32;;;;;;;21.93;15.27;;;;;;;;;;4979054;28;20924;-78
2021/12/07 12:26:00;;;;;;;23.90;16.20;;;;;;;;;;4975039;28;20511;-78
2021/12/07 12:28:32;;;;;;;22.37;15.63;;;;;;;;;;4994432;28;21401;-78
2021/12/07 12:30:58;;;;;;;23.47;15.73;;;;;;;;;;4993956;28;20498;-78
2021/12/07 12:33:24;;;;;;;24.30;16.10;;;;;;;;;;4978064;28;20427;-77
2021/12/07 12:35:54;;;;;;;26.40;16.70;;;;;;;;;;4978980;28;20511;-79
2021/12/07 12:38:25;;;;;;;25.57;15.97;;;;;;;;;;4977232;28;20413;-80
2021/12/07 12:40:57;;;;;;;24.53;15.17;;;;;;;;;;4974387;28;20512;-79
2021/12/07 12:43:42;;;;;;;28.30;16.50;;;;;;;;;;4979361;28;20409;-78
2021/12/07 12:46:10;;;;;;;24.70;15.50;;;;;;;;;;4992011;28;20421;-78
2021/12/07 12:48:36;;;;;;;25.60;15.87;;;;;;;;;;4974137;28;20948;-79
2021/12/07 12:51:04;;;;;;;22.73;15.53;;;;;;;;;;4966988;28;20432;-78
2021/12/07 12:53:34;;;;;;;23.10;15.07;;;;;;;;;;5008234;28;20440;-78
2021/12/07 12:56:03;;;;;;;26.50;15.87;;;;;;;;;;4992293;28;20484;-79
2021/12/07 12:58:34;;;;;;;25.40;15.83;;;;;;;;;;4977180;28;20543;-79
2021/12/07 13:01:10;;;;;;;26.17;15.87;;;;;;;;;;4996278;28;20408;-79
2021/12/07 13:03:42;;;;;;;26.07;15.57;;;;;;;;;;4996419;28;20923;-79
2021/12/07 13:06:08;;;;;;;22.90;15.57;;;;;;;;;;4995694;28;20423;-79
2021/12/07 13:08:51;;;;;;;25.07;15.83;;;;;;;;;;4980494;28;20416;-79
2021/12/07 13:11:30;;;;;;;24.97;15.97;;;;;;;;;;5012446;28;20412;-78
2021/12/07 13:13:56;;;;;;;22.77;15.43;;;;;;;;;;4984170;28;20412;-77
2021/12/07 13:16:22;;;;;;;25.53;15.63;;;;;;;;;;4985747;28;20423;-79
2021/12/07 13:18:48;;;;;;;26.63;16.33;;;;;;;;;;4979389;28;20502;-78
2021/12/07 13:21:23;;;;;;;28.80;17.10;;;;;;;;;;4981945;28;20435;-78
2021/12/07 13:24:03;;;;;;;23.63;15.87;;;;;;;;;;4995289;28;20972;-78
2021/12/07 13:26:34;;;;;;;23.63;16.30;;;;;;;;;;4994993;28;20447;-79
2021/12/07 13:29:20;;;;;;;25.27;15.90;;;;;;;;;;4975941;28;20412;-79
2021/12/07 13:31:49;;;;;;;27.00;16.77;;;;;;;;;;4994716;28;21262;-80
2021/12/07 13:34:17;;;;;;;25.60;16.90;;;;;;;;;;4980761;28;20451;-79
2021/12/07 13:36:47;;;;;;;25.63;17.40;;;;;;;;;;4996614;28;21302;-78
2021/12/07 13:39:14;;;;;;;25.90;16.77;;;;;;;;;;4981091;28;21349;-79
2021/12/07 13:41:55;;;;;;;25.03;16.43;;;;;;;;;;4981278;28;20516;-79
2021/12/07 13:44:22;;;;;;;26.43;16.57;;;;;;;;;;4998532;28;21686;-78
2021/12/07 13:46:51;;;;;;;23.87;15.70;;;;;;;;;;4978681;28;21218;-78
2021/12/07 13:49:17;;;;;;;25.43;16.13;;;;;;;;;;4994727;28;21053;-78
2021/12/07 13:51:44;;;;;;;27.07;16.77;;;;;;;;;;4977877;28;20417;-78
2021/12/07 13:54:15;;;;;;;27.73;17.17;;;;;;;;;;4996044;28;21035;-78
2021/12/07 13:56:41;;;;;;;27.97;17.73;;;;;;;;;;4994412;28;20417;-79
2021/12/07 13:59:07;;;;;;;24.67;16.57;;;;;;;;;;4993424;28;21105;-79
2021/12/07 14:01:35;;;;;;;29.03;17.63;;;;;;;;;;4979901;28;21371;-78
2021/12/07 14:04:04;;;;;;;24.80;16.67;;;;;;;;;;5010506;28;21401;-78
2021/12/07 14:06:31;;;;;;;25.27;16.40;;;;;;;;;;4978042;28;20536;-78
2021/12/07 14:09:07;;;;;;;25.87;17.90;;;;;;;;;;4978198;28;21311;-78
2021/12/07 14:11:33;;;;;;;25.37;17.13;;;;;;;;;;5011925;28;20409;-78
2021/12/07 14:13:59;;;;;;;25.70;16.63;;;;;;;;;;4996413;28;20408;-78
2021/12/07 14:16:26;;;;;;;24.73;16.60;;;;;;;;;;4972732;28;20451;-78
2021/12/07 14:18:52;;;;;;;24.30;16.60;;;;;;;;;;4993024;28;20428;-78
2021/12/07 14:21:19;;;;;;;24.67;16.43;;;;;;;;;;4993969;28;21206;-78
2021/12/07 14:23:46;;;;;;;25.63;16.83;;;;;;;;;;4981059;28;20460;-78
2021/12/07 14:26:17;;;;;;;26.60;16.27;;;;;;;;;;4980128;28;20428;-78
2021/12/07 14:28:54;;;;;;;23.73;16.20;;;;;;;;;;4977712;28;20522;-78
2021/12/07 14:31:22;;;;;;;28.77;16.53;;;;;;;;;;4995228;28;20421;-78
2021/12/07 14:33:51;;;;;;;26.97;16.37;;;;;;;;;;4980328;28;20412;-79
2021/12/07 14:36:19;;;;;;;26.43;16.33;;;;;;;;;;4992004;28;21532;-79
2021/12/07 14:38:46;;;;;;;26.17;15.60;;;;;;;;;;4983108;28;20423;-78
2021/12/07 14:41:13;;;;;;;26.13;16.07;;;;;;;;;;4980515;28;20439;-79
2021/12/07 14:43:41;;;;;;;26.07;16.33;;;;;;;;;;4984409;28;20424;-79
2021/12/07 14:46:09;;;;;;;26.83;16.97;;;;;;;;;;4995076;28;20458;-79
2021/12/07 14:48:35;;;;;;;24.97;16.50;;;;;;;;;;4983382;28;20432;-78
2021/12/07 14:51:06;;;;;;;30.57;17.20;;;;;;;;;;4977998;28;21005;-78
2021/12/07 14:53:33;;;;;;;26.77;17.27;;;;;;;;;;4985673;28;21248;-79
2021/12/07 14:55:59;;;;;;;26.13;17.20;;;;;;;;;;4983256;28;20470;-78
2021/12/07 14:58:35;;;;;;;28.10;17.33;;;;;;;;;;4999677;28;20451;-78
2021/12/07 15:01:03;;;;;;;26.67;15.83;;;;;;;;;;4980794;28;20415;-79
2021/12/07 15:03:36;;;;;;;27.13;16.03;;;;;;;;;;4995291;28;20397;-78
2021/12/07 15:06:04;;;;;;;25.03;15.73;;;;;;;;;;4983060;28;21454;-78
2021/12/07 15:08:30;;;;;;;25.37;15.67;;;;;;;;;;4996325;28;20425;-78
2021/12/07 15:10:57;;;;;;;29.47;16.43;;;;;;;;;;4982996;28;21350;-78
2021/12/07 15:13:23;;;;;;;29.80;16.53;;;;;;;;;;4979340;28;20547;-78
2021/12/07 15:15:51;;;;;;;28.97;17.03;;;;;;;;;;4980153;28;20460;-78
2021/12/07 15:18:17;;;;;;;30.63;16.63;;;;;;;;;;4983105;28;20432;-78
2021/12/07 15:20:46;;;;;;;30.27;17.07;;;;;;;;;;4983511;28;21098;-78
2021/12/07 15:23:13;;;;;;;29.37;16.73;;;;;;;;;;4978504;28;21062;-78
2021/12/07 15:25:40;;;;;;;29.13;16.77;;;;;;;;;;4997219;28;20428;-78
2021/12/07 15:28:06;;;;;;;29.23;16.83;;;;;;;;;;4998511;28;20455;-79
2021/12/07 15:30:33;;;;;;;26.37;15.93;;;;;;;;;;4996880;28;20447;-78
2021/12/07 15:32:59;;;;;;;25.33;15.97;;;;;;;;;;4993295;28;20432;-79
2021/12/07 15:35:26;;;;;;;27.57;17.37;;;;;;;;;;4995944;28;20462;-78
2021/12/07 15:37:52;;;;;;;31.53;16.30;;;;;;;;;;4979869;28;20484;-79
2021/12/07 15:40:20;;;;;;;27.83;16.77;;;;;;;;;;4998104;28;20418;-78
2021/12/07 15:42:46;;;;;;;29.10;16.90;;;;;;;;;;4996443;28;20421;-79
2021/12/07 15:45:13;;;;;;;33.97;17.20;;;;;;;;;;4981377;28;20946;-79
2021/12/07 15:47:43;;;;;;;36.37;16.93;;;;;;;;;;4996097;28;20547;-78
2021/12/07 15:50:11;;;;;;;35.73;17.63;;;;;;;;;;4978797;28;21318;-78
2021/12/07 15:52:40;;;;;;;31.50;17.70;;;;;;;;;;4993401;28;20495;-78
2021/12/07 15:55:06;;;;;;;37.10;17.97;;;;;;;;;;4995505;28;20534;-78
2021/12/07 15:57:44;;;;;;;34.10;17.67;;;;;;;;;;4977863;28;20544;-78
2021/12/07 16:00:11;;;;;;;31.63;17.27;;;;;;;;;;4994649;28;20416;-78